Map

Track Data

SID SEASON NUMBER BASIN SUBBASIN NAME ISO_TIME NATURE LAT LON WMO_WIND WMO_PRES WMO_AGENCY TRACK_TYPE DIST2LAND LANDFALL IFLAG USA_AGENCY USA_ATCF_ID USA_LAT USA_LON USA_RECORD USA_STATUS USA_WIND USA_PRES USA_SSHS USA_R34_NE USA_R34_SE USA_R34_SW USA_R34_NW USA_R50_NE USA_R50_SE USA_R50_SW USA_R50_NW USA_R64_NE USA_R64_SE USA_R64_SW USA_R64_NW USA_POCI USA_ROCI USA_RMW USA_EYE TOKYO_LAT TOKYO_LON TOKYO_GRADE TOKYO_WIND TOKYO_PRES TOKYO_R50_DIR TOKYO_R50_LONG TOKYO_R50_SHORT TOKYO_R30_DIR TOKYO_R30_LONG TOKYO_R30_SHORT TOKYO_LAND CMA_LAT CMA_LON CMA_CAT CMA_WIND CMA_PRES HKO_LAT HKO_LON HKO_CAT HKO_WIND HKO_PRES NEWDELHI_LAT NEWDELHI_LON NEWDELHI_GRADE NEWDELHI_WIND NEWDELHI_PRES NEWDELHI_CI NEWDELHI_DP NEWDELHI_POCI REUNION_LAT REUNION_LON REUNION_TYPE REUNION_WIND REUNION_PRES REUNION_TNUM REUNION_CI REUNION_RMW REUNION_R34_NE REUNION_R34_SE REUNION_R34_SW REUNION_R34_NW REUNION_R50_NE REUNION_R50_SE REUNION_R50_SW REUNION_R50_NW REUNION_R64_NE REUNION_R64_SE REUNION_R64_SW REUNION_R64_NW BOM_LAT BOM_LON BOM_TYPE BOM_WIND BOM_PRES BOM_TNUM BOM_CI BOM_RMW BOM_R34_NE BOM_R34_SE BOM_R34_SW BOM_R34_NW BOM_R50_NE BOM_R50_SE BOM_R50_SW BOM_R50_NW BOM_R64_NE BOM_R64_SE BOM_R64_SW BOM_R64_NW BOM_ROCI BOM_POCI BOM_EYE BOM_POS_METHOD BOM_PRES_METHOD NADI_LAT NADI_LON NADI_CAT NADI_WIND NADI_PRES WELLINGTON_LAT WELLINGTON_LON WELLINGTON_WIND WELLINGTON_PRES DS824_LAT DS824_LON DS824_STAGE DS824_WIND DS824_PRES TD9636_LAT TD9636_LON TD9636_STAGE TD9636_WIND TD9636_PRES TD9635_LAT TD9635_LON TD9635_WIND TD9635_PRES TD9635_ROCI NEUMANN_LAT NEUMANN_LON NEUMANN_CLASS NEUMANN_WIND NEUMANN_PRES MLC_LAT MLC_LON MLC_CLASS MLC_WIND MLC_PRES USA_GUST BOM_GUST BOM_GUST_PER REUNION_GUST REUNION_GUST_PER USA_SEAHGT USA_SEARAD_NE USA_SEARAD_SE USA_SEARAD_SW USA_SEARAD_NW STORM_SPEED STORM_DIR
1905200N21089 1905 28 NI BB NOT_NAMED 1905-07-19 00:00:00 TS 21.2000 88.8000 main 45 45 _________O____ -1 21.2000 88.8000 TC 30 5 253
1905200N21089 1905 28 NI BB NOT_NAMED 1905-07-19 03:00:00 TS 21.1268 88.5349 main 55 55 _________PO___ -1 21.0902 88.4023 TC 30 21.2000 88.8000 1 6 256
1905200N21089 1905 28 NI BB NOT_NAMED 1905-07-19 06:00:00 TS 21.0479 88.1517 main 67 67 _________OP___ -1 21.0000 88.0000 TC 30 21.1198 88.3794 1 7 259
1905200N21089 1905 28 NI BB NOT_NAMED 1905-07-19 09:00:00 TS 20.9848 87.7531 main 78 43 _________PP___ -1 20.9425 87.5926 TC 30 21.0412 87.9672 1 7 261
1905200N21089 1905 28 NI BB NOT_NAMED 1905-07-19 12:00:00 TS 20.9335 87.3857 main 43 10 _________OP___ -1 20.9000 87.2000 TC 30 20.9670 87.5714 1 7 261
1905200N21089 1905 28 NI BB NOT_NAMED 1905-07-19 15:00:00 TS 20.8712 87.0212 main 10 0 _________PO___ -1 20.8424 86.8425 TC 30 20.9000 87.2000 1 7 260
1905200N21089 1905 28 NI BB NOT_NAMED 1905-07-19 18:00:00 TS 20.8218 86.6779 main 0 0 _________OP___ -1 20.8000 86.5000 TC 30 20.8437 86.8559 1 6 263
1905200N21089 1905 28 NI BB NOT_NAMED 1905-07-19 21:00:00 TS 20.7944 86.3474 main 0 0 _________PP___ -1 20.7848 86.1725 TC 30 20.8040 86.5223 1 6 267
1905200N21089 1905 28 NI BB NOT_NAMED 1905-07-20 00:00:00 TS 20.7937 85.9888 main 0 0 _________OP___ -1 20.8000 85.8000 TC 30 20.7874 86.1776 1 7 272
1905200N21089 1905 28 NI BB NOT_NAMED 1905-07-20 03:00:00 TS 20.8175 85.5575 main 0 0 _________PO___ -1 20.8351 85.3150 TC 30 20.8000 85.8000 1 9 275
1905200N21089 1905 28 NI BB NOT_NAMED 1905-07-20 06:00:00 TS 20.8732 85.0766 main 0 0 _________OP___ -1 20.9000 84.8000 TC 30 20.8465 85.3531 1 9 279
1905200N21089 1905 28 NI BB NOT_NAMED 1905-07-20 09:00:00 TS 20.9563 84.6040 main 0 0 _________PP___ -1 20.9924 84.3350 TC 30 20.9203 84.8729 1 9 282
1905200N21089 1905 28 NI BB NOT_NAMED 1905-07-20 12:00:00 TS 21.0545 84.1406 main 0 0 _________OP___ -1 21.1000 83.9000 TC 30 21.0089 84.3812 1 9 283
1905200N21089 1905 28 NI BB NOT_NAMED 1905-07-20 15:00:00 TS 21.1536 83.7000 main 0 0 _________PO___ -1 21.2073 83.5000 TC 30 21.1000 83.9000 1 8 283
1905200N21089 1905 28 NI BB NOT_NAMED 1905-07-20 18:00:00 TS 21.2387 83.3066 main 0 0 _________OP___ -1 21.3000 83.1000 TC 30 21.1774 83.5131 1 7 282
1905200N21089 1905 28 NI BB NOT_NAMED 1905-07-20 21:00:00 TS 21.3060 82.9172 main 0 0 _________PP___ -1 21.3570 82.7023 TC 30 21.2550 83.1320 1 8 279
1905200N21089 1905 28 NI BB NOT_NAMED 1905-07-21 00:00:00 TS 21.3651 82.4550 main 0 0 _________OP___ -1 21.4000 82.2000 TC 30 21.3302 82.7100 1 10 277
1905200N21089 1905 28 NI BB NOT_NAMED 1905-07-21 03:00:00 TS 21.4251 81.8475 main 0 0 _________PO___ -1 21.4502 81.4950 TC 30 21.4000 82.2000 1 12 275
1905200N21089 1905 28 NI BB NOT_NAMED 1905-07-21 06:00:00 TS 21.4748 81.1235 main 0 0 _________OP___ -1 21.5000 80.7000 TC 30 21.4496 81.5469 1 14 274
1905200N21089 1905 28 NI BB NOT_NAMED 1905-07-21 09:00:00 TS 21.5176 80.3807 main 0 0 _________PP___ -1 21.5421 79.9573 TC 30 21.4932 80.8041 1 14 274
1905200N21089 1905 28 NI BB NOT_NAMED 1905-07-21 12:00:00 TS 21.5700 79.6046 main 0 0 _________OP___ -1 21.6000 79.2000 TC 30 21.5400 80.0092 1 15 275
1905200N21089 1905 28 NI BB NOT_NAMED 1905-07-21 15:00:00 TS 21.6462 78.8000 main 0 0 _________PO___ -1 21.6923 78.4000 TC 30 21.6000 79.2000 1 15 276
1905200N21089 1905 28 NI AS NOT_NAMED 1905-07-21 18:00:00 TS 21.7388 77.9999 main 0 0 _________OP___ -1 21.8000 77.6000 TC 30 21.6776 78.3998 1 15 277
1905200N21089 1905 28 NI AS NOT_NAMED 1905-07-21 21:00:00 TS 21.8351 77.2088 main 0 0 _________PP___ -1 21.8998 76.8199 TC 30 21.7703 77.5976 1 14 278
1905200N21089 1905 28 NI AS NOT_NAMED 1905-07-22 00:00:00 TS 21.9389 76.4608 main 0 0 _________OP___ -1 22.0000 76.1000 TC 30 21.8778 76.8215 1 13 279
1905200N21089 1905 28 NI AS NOT_NAMED 1905-07-22 03:00:00 TS 22.0423 75.7849 main 0 0 _________PO___ -1 22.0846 75.4697 TC 30 22.0000 76.1000 1 12 281
1905200N21089 1905 28 NI AS NOT_NAMED 1905-07-22 06:00:00 TS 22.1611 75.1734 main 0 0 _________OP___ -1 22.2000 74.9000 TC 30 22.1221 75.4469 1 11 284
1905200N21089 1905 28 NI AS NOT_NAMED 1905-07-22 09:00:00 TS 22.3192 74.5898 main 0 0 _________PP___ -1 22.3774 74.3275 TC 30 22.2610 74.8521 1 11 289
1905200N21089 1905 28 NI AS NOT_NAMED 1905-07-22 12:00:00 TS 22.5097 74.0531 main 0 0 _________OP___ -1 22.6000 73.8000 TC 30 22.4194 74.3062 1 10 293
1905200N21089 1905 28 NI AS NOT_NAMED 1905-07-22 15:00:00 TS 22.7249 73.5675 main 0 0 _________PO___ -1 22.8497 73.3349 TC 30 22.6000 73.8000 1 10 297
1905200N21089 1905 28 NI AS NOT_NAMED 1905-07-22 18:00:00 TS 22.9658 73.0871 main 0 0 _________OP___ -1 23.1000 72.9000 TC 30 22.8316 73.2742 1 10 298
1905200N21089 1905 28 NI AS NOT_NAMED 1905-07-22 21:00:00 TS 23.2050 72.6006 main 0 0 _________PP___ -1 23.3301 72.4126 TC 30 23.0798 72.7886 1 9 298
1905200N21089 1905 28 NI AS NOT_NAMED 1905-07-23 00:00:00 TS 23.4065 72.1793 main 0 0 _________OP___ -1 23.5000 72.0000 TC 30 23.3131 72.3586 1 7 297
1905200N21089 1905 28 NI AS NOT_NAMED 1905-07-23 03:00:00 TS 23.5361 71.8811 main 0 0 _________PO___ -1 23.5723 71.7623 TC 30 23.5000 72.0000 1 5 292
1905200N21089 1905 28 NI AS NOT_NAMED 1905-07-23 06:00:00 TS 23.5937 71.6635 main 0 0 _________OP___ -1 23.6000 71.6000 TC 30 23.5873 71.7271 1 4 285
1905200N21089 1905 28 NI AS NOT_NAMED 1905-07-23 09:00:00 TS 23.6358 71.4618 main 0 0 _________PP___ -1 23.6425 71.3999 TC 30 23.6290 71.5237 1 4 283
1905200N21089 1905 28 NI AS NOT_NAMED 1905-07-23 12:00:00 TS 23.6781 71.2793 main 0 0 _________OP___ -1 23.7000 71.2000 TC 30 23.6563 71.3586 1 3 288
1905200N21089 1905 28 NI AS NOT_NAMED 1905-07-23 15:00:00 TS 23.7425 71.1000 main 0 0 _________PO___ -1 23.7850 71.0000 TC 30 23.7000 71.2000 1 4 296
1905200N21089 1905 28 NI AS NOT_NAMED 1905-07-23 18:00:00 TS 23.8336 70.9272 main 0 0 _________OP___ -1 23.9000 70.8000 TC 30 23.7839 71.0225 1 4 303
1905200N21089 1905 28 NI AS NOT_NAMED 1905-07-23 21:00:00 TS 23.9589 70.7356 main 0 0 _________PP___ -1 24.0426 70.6001 TC 30 23.9031 70.8260 1 4 307
1905200N21089 1905 28 NI AS NOT_NAMED 1905-07-24 00:00:00 TS 24.0972 70.5443 main 0 0 _________OP___ -1 24.2000 70.4000 TC 30 24.0458 70.6164 1 4 308
1905200N21089 1905 28 NI AS NOT_NAMED 1905-07-24 03:00:00 NR 24.2000 70.4000 main 0 __________O___ -1 TC 24.2000 70.4000 1 3 308

About IBTrACS Database

This database is a web-friendly format of International Best Track Archive for Climate Stewardship (IBTrACS), a global best track data archive curated by NOAA dating back to 1842.

Updated: 2021-12-08